Time;durP1;ratioP1;P1;durP2;ratioP2;P2;SDS_P1;SDS_P2;PMS_P1;PMS_P2;Temp;Humidity;BMP_temperature;BMP_pressure;BME280_temperature;BME280_humidity;BME280_pressure;Samples;Min_cycle;Max_cycle;Signal;HPM_P1;HPM_P2
2021/06/15 00:01:25;;;;;;;;;0.00;0.00;;;;;;;;5112085;27;8832;-42
2021/06/15 00:03:51;;;;;;;;;0.00;0.00;;;;;;;;5115302;27;8800;-43
2021/06/15 00:06:16;;;;;;;;;0.00;0.00;;;;;;;;5109490;27;8958;-43
2021/06/15 00:08:41;;;;;;;;;0.00;0.00;;;;;;;;5121909;27;8897;-42
2021/06/15 00:11:06;;;;;;;;;0.00;0.00;;;;;;;;5111149;27;8897;-42
2021/06/15 00:13:32;;;;;;;;;0.00;0.00;;;;;;;;5116812;27;8850;-44
2021/06/15 00:15:57;;;;;;;;;0.00;0.00;;;;;;;;5112086;27;9306;-42
2021/06/15 00:18:22;;;;;;;;;0.00;0.00;;;;;;;;5117290;27;8820;-43
2021/06/15 00:20:48;;;;;;;;;0.00;0.00;;;;;;;;5114585;27;8904;-43
2021/06/15 00:23:14;;;;;;;;;0.00;0.00;;;;;;;;5111063;27;8764;-43
2021/06/15 00:25:39;;;;;;;;;0.00;0.00;;;;;;;;5111582;27;8752;-43
2021/06/15 00:28:05;;;;;;;;;0.00;0.00;;;;;;;;5114817;27;8800;-43
2021/06/15 00:30:30;;;;;;;;;0.00;0.00;;;;;;;;5114671;27;8982;-43
2021/06/15 00:32:55;;;;;;;;;0.00;0.00;;;;;;;;5117444;27;8787;-43
2021/06/15 00:35:21;;;;;;;;;0.00;0.00;;;;;;;;5110519;27;8816;-43
2021/06/15 00:37:46;;;;;;;;;0.00;0.00;;;;;;;;5111545;27;8853;-43
2021/06/15 00:40:12;;;;;;;;;0.00;0.00;;;;;;;;5118628;27;8801;-43
2021/06/15 00:42:38;;;;;;;;;0.00;0.00;;;;;;;;5116378;27;8799;-43
2021/06/15 00:45:14;;;;;;;;;0.00;0.00;;;;;;;;5114973;27;8780;-43
2021/06/15 00:47:41;;;;;;;;;0.00;0.00;;;;;;;;5111271;27;8833;-43
2021/06/15 00:50:06;;;;;;;;;0.00;0.00;;;;;;;;5112606;27;8770;-43
2021/06/15 00:52:32;;;;;;;;;0.00;0.00;;;;;;;;5107099;27;8764;-43
2021/06/15 00:54:58;;;;;;;;;0.00;0.00;;;;;;;;5115471;27;8777;-43
2021/06/15 00:57:26;;;;;;;;;0.00;0.00;;;;;;;;5090981;27;8748;-43
2021/06/15 00:59:51;;;;;;;;;0.00;0.00;;;;;;;;5090589;27;8836;-43
2021/06/15 01:02:16;;;;;;;;;0.00;0.00;;;;;;;;5096388;28;8795;-43
2021/06/15 01:04:42;;;;;;;;;0.00;0.00;;;;;;;;5089656;28;8756;-43
2021/06/15 01:07:10;;;;;;;;;0.00;0.00;;;;;;;;5098729;28;8782;-43
2021/06/15 01:09:50;;;;;;;;;0.00;0.00;;;;;;;;5089220;27;8960;-43
2021/06/15 01:12:39;;;;;;;;;0.00;0.00;;;;;;;;5093845;28;8762;-43
2021/06/15 01:15:04;;;;;;;;;0.00;0.00;;;;;;;;5093678;28;8777;-43
2021/06/15 01:17:35;;;;;;;;;0.00;0.00;;;;;;;;5090941;27;8779;-43
2021/06/15 01:20:06;;;;;;;;;0.00;0.00;;;;;;;;5091429;27;8798;-43
2021/06/15 01:22:34;;;;;;;;;0.00;0.00;;;;;;;;5095275;28;8763;-43
2021/06/15 01:25:06;;;;;;;;;0.00;0.00;;;;;;;;5096101;28;8780;-43
2021/06/15 01:27:37;;;;;;;;;0.00;0.00;;;;;;;;5110010;27;8751;-43
2021/06/15 01:30:04;;;;;;;;;0.00;0.00;;;;;;;;5098372;27;8830;-43
2021/06/15 01:32:31;;;;;;;;;0.00;0.00;;;;;;;;5089848;27;8791;-43
2021/06/15 01:34:57;;;;;;;;;0.00;0.00;;;;;;;;5090629;28;8790;-43
2021/06/15 01:37:25;;;;;;;;;0.00;0.00;;;;;;;;5094215;28;8828;-43
2021/06/15 01:39:55;;;;;;;;;0.00;0.00;;;;;;;;5094974;27;8912;-43
2021/06/15 01:42:29;;;;;;;;;0.00;0.00;;;;;;;;5092741;28;8786;-43
2021/06/15 01:45:04;;;;;;;;;0.00;0.00;;;;;;;;5092828;28;8876;-43
2021/06/15 01:47:29;;;;;;;;;0.00;0.00;;;;;;;;5093065;27;8814;-43
2021/06/15 01:49:57;;;;;;;;;0.00;0.00;;;;;;;;5095866;27;9553;-43
2021/06/15 01:52:23;;;;;;;;;0.00;0.00;;;;;;;;5093024;27;8758;-43
2021/06/15 01:54:49;;;;;;;;;0.00;0.00;;;;;;;;5101218;27;8772;-43
2021/06/15 01:57:18;;;;;;;;;0.00;0.00;;;;;;;;5091250;28;8818;-43
2021/06/15 01:59:45;;;;;;;;;0.00;0.00;;;;;;;;5098968;27;8799;-43
2021/06/15 02:02:11;;;;;;;;;0.00;0.00;;;;;;;;5091043;27;8779;-43
2021/06/15 02:04:40;;;;;;;;;0.00;0.00;;;;;;;;5098092;27;8775;-43
2021/06/15 02:07:06;;;;;;;;;0.00;0.00;;;;;;;;5094942;27;8800;-43
2021/06/15 02:09:34;;;;;;;;;0.00;0.00;;;;;;;;5106879;27;8837;-44
2021/06/15 02:11:59;;;;;;;;;0.00;0.00;;;;;;;;5096910;27;9511;-43
2021/06/15 02:14:27;;;;;;;;;0.00;0.00;;;;;;;;5103103;27;8785;-43
2021/06/15 02:16:57;;;;;;;;;0.00;0.00;;;;;;;;5093916;27;9935;-44
2021/06/15 02:19:24;;;;;;;;;0.00;0.00;;;;;;;;5097493;27;8801;-44
2021/06/15 02:21:52;;;;;;;;;0.00;0.00;;;;;;;;5092061;27;8874;-43
2021/06/15 02:24:17;;;;;;;;;0.00;0.00;;;;;;;;5100527;27;8793;-43
2021/06/15 02:26:43;;;;;;;;;0.00;0.00;;;;;;;;5093409;28;8772;-43
2021/06/15 02:29:10;;;;;;;;;0.00;0.00;;;;;;;;5096134;27;8772;-43
2021/06/15 02:31:38;;;;;;;;;0.00;0.00;;;;;;;;5091781;27;8817;-43
2021/06/15 02:34:06;;;;;;;;;0.00;0.00;;;;;;;;5116519;27;9745;-43
2021/06/15 02:36:34;;;;;;;;;0.00;0.00;;;;;;;;5111885;27;8766;-43
2021/06/15 02:39:10;;;;;;;;;0.00;0.00;;;;;;;;5121150;27;8789;-43
2021/06/15 02:41:37;;;;;;;;;0.00;0.00;;;;;;;;5113201;27;8768;-43
2021/06/15 02:44:04;;;;;;;;;0.00;0.00;;;;;;;;5120174;27;9774;-43
2021/06/15 02:46:30;;;;;;;;;0.00;0.00;;;;;;;;5123607;27;8807;-43
2021/06/15 02:48:58;;;;;;;;;0.00;0.00;;;;;;;;5116866;27;8793;-43
2021/06/15 02:51:26;;;;;;;;;0.00;0.00;;;;;;;;5116106;27;8802;-43
2021/06/15 02:54:02;;;;;;;;;0.00;0.00;;;;;;;;5115241;27;8798;-43
2021/06/15 02:56:29;;;;;;;;;0.00;0.00;;;;;;;;5117278;27;9599;-43
2021/06/15 02:58:54;;;;;;;;;0.00;0.00;;;;;;;;5114380;27;8769;-43
2021/06/15 03:01:20;;;;;;;;;0.00;0.00;;;;;;;;5123450;27;8867;-42
2021/06/15 03:03:45;;;;;;;;;0.00;0.00;;;;;;;;5117507;27;8793;-43
2021/06/15 03:06:10;;;;;;;;;0.00;0.00;;;;;;;;5114039;27;8796;-43
2021/06/15 03:08:37;;;;;;;;;0.00;0.00;;;;;;;;5112939;27;8907;-43
2021/06/15 03:11:03;;;;;;;;;0.00;0.00;;;;;;;;5111201;27;8802;-43
2021/06/15 03:13:40;;;;;;;;;0.00;0.00;;;;;;;;5114341;27;8784;-43
2021/06/15 03:16:06;;;;;;;;;0.00;0.00;;;;;;;;5111029;27;8948;-43
2021/06/15 03:18:51;;;;;;;;;0.00;0.00;;;;;;;;5116233;27;8900;-43
2021/06/15 03:21:18;;;;;;;;;0.00;0.00;;;;;;;;5111748;27;9541;-44
2021/06/15 03:23:51;;;;;;;;;0.00;0.00;;;;;;;;5118043;27;9474;-43
2021/06/15 03:26:20;;;;;;;;;0.00;0.00;;;;;;;;5109243;27;8876;-43
2021/06/15 03:28:49;;;;;;;;;0.00;0.00;;;;;;;;5113071;27;9508;-43
2021/06/15 03:31:16;;;;;;;;;0.00;0.00;;;;;;;;5116752;27;8809;-43
2021/06/15 03:33:42;;;;;;;;;0.00;0.00;;;;;;;;5112520;27;8909;-43
2021/06/15 03:36:10;;;;;;;;;0.00;0.00;;;;;;;;5112074;27;9592;-44
2021/06/15 03:38:36;;;;;;;;;0.00;0.00;;;;;;;;5114469;27;8772;-43
2021/06/15 03:41:01;;;;;;;;;0.00;0.00;;;;;;;;5112121;27;8827;-43
2021/06/15 03:43:28;;;;;;;;;0.00;0.00;;;;;;;;5111428;27;8774;-43
2021/06/15 03:46:10;;;;;;;;;0.00;0.00;;;;;;;;5116985;27;8784;-43
2021/06/15 03:48:37;;;;;;;;;0.00;0.00;;;;;;;;5113614;27;8803;-43
2021/06/15 03:51:03;;;;;;;;;0.00;0.00;;;;;;;;5107569;27;8815;-43
2021/06/15 03:53:30;;;;;;;;;0.00;0.00;;;;;;;;5112971;27;8753;-43
2021/06/15 03:55:57;;;;;;;;;0.00;0.00;;;;;;;;5112010;27;8765;-43
2021/06/15 03:58:22;;;;;;;;;0.00;0.00;;;;;;;;5110136;27;8785;-43
2021/06/15 04:00:49;;;;;;;;;0.00;0.00;;;;;;;;5116209;27;8880;-43
2021/06/15 04:03:15;;;;;;;;;0.00;0.00;;;;;;;;5112203;27;8812;-43
2021/06/15 04:05:41;;;;;;;;;0.00;0.00;;;;;;;;5115723;27;9513;-43
2021/06/15 04:08:07;;;;;;;;;0.00;0.00;;;;;;;;5113542;27;8781;-43
2021/06/15 04:10:33;;;;;;;;;0.00;0.00;;;;;;;;5114344;27;8809;-43
2021/06/15 04:13:01;;;;;;;;;0.00;0.00;;;;;;;;5111730;27;8799;-43
2021/06/15 04:15:26;;;;;;;;;0.00;0.00;;;;;;;;5115246;27;8837;-43
2021/06/15 04:17:53;;;;;;;;;0.00;0.00;;;;;;;;5108627;27;8780;-43
2021/06/15 04:20:24;;;;;;;;;0.00;0.00;;;;;;;;5117561;27;8788;-43
2021/06/15 04:22:51;;;;;;;;;0.00;0.00;;;;;;;;5113750;27;8758;-43
2021/06/15 04:25:21;;;;;;;;;0.00;0.00;;;;;;;;5115018;27;8797;-43
2021/06/15 04:27:46;;;;;;;;;0.00;0.00;;;;;;;;5089713;28;8790;-43
2021/06/15 04:30:12;;;;;;;;;0.00;0.00;;;;;;;;5092665;27;8807;-43
2021/06/15 04:32:40;;;;;;;;;0.00;0.00;;;;;;;;5093346;27;8770;-43
2021/06/15 04:35:06;;;;;;;;;0.00;0.00;;;;;;;;5101400;27;8813;-43
2021/06/15 04:37:32;;;;;;;;;0.00;0.00;;;;;;;;5110738;27;8808;-43
2021/06/15 04:40:03;;;;;;;;;0.00;0.00;;;;;;;;5097007;28;8784;-43
2021/06/15 04:42:52;;;;;;;;;0.00;0.00;;;;;;;;5104780;27;8923;-43
2021/06/15 04:45:23;;;;;;;;;0.00;0.00;;;;;;;;5064818;27;8821;-43
2021/06/15 04:47:51;;;;;;;;;0.00;0.00;;;;;;;;5110709;27;8761;-43
2021/06/15 04:50:24;;;;;;;;;0.00;0.00;;;;;;;;5114355;27;8832;-43
2021/06/15 04:52:50;;;;;;;;;0.00;0.00;;;;;;;;5109255;27;8794;-43
2021/06/15 04:55:17;;;;;;;;;0.00;0.00;;;;;;;;5122024;27;8816;-44
2021/06/15 04:57:44;;;;;;;;;0.00;0.00;;;;;;;;5090171;28;8868;-43
2021/06/15 05:00:09;;;;;;;;;0.00;0.00;;;;;;;;5090372;28;8813;-43
2021/06/15 05:02:37;;;;;;;;;0.00;0.00;;;;;;;;5089146;27;8794;-44
2021/06/15 05:05:03;;;;;;;;;0.00;0.00;;;;;;;;5091506;28;8837;-43
2021/06/15 05:07:29;;;;;;;;;0.00;0.00;;;;;;;;5086832;28;8894;-43
2021/06/15 05:09:55;;;;;;;;;0.00;0.00;;;;;;;;5095370;28;8948;-43
2021/06/15 05:12:22;;;;;;;;;0.00;0.00;;;;;;;;5088638;27;9998;-43
2021/06/15 05:14:48;;;;;;;;;0.00;0.00;;;;;;;;5096064;28;8953;-43
2021/06/15 05:17:14;;;;;;;;;0.00;0.00;;;;;;;;5093246;28;8778;-43
2021/06/15 05:19:40;;;;;;;;;0.00;0.00;;;;;;;;5093128;27;8846;-43
2021/06/15 05:22:09;;;;;;;;;0.00;0.00;;;;;;;;5094555;27;8887;-43
2021/06/15 05:24:46;;;;;;;;;0.00;0.00;;;;;;;;5097752;27;8771;-43
2021/06/15 05:27:13;;;;;;;;;0.00;0.00;;;;;;;;5093306;28;8774;-43
2021/06/15 05:29:38;;;;;;;;;0.00;0.00;;;;;;;;5094091;27;8777;-43
2021/06/15 05:32:06;;;;;;;;;0.00;0.00;;;;;;;;5095217;28;8752;-43
2021/06/15 05:34:32;;;;;;;;;0.00;0.00;;;;;;;;5096923;28;9575;-43
2021/06/15 05:36:57;;;;;;;;;0.00;0.00;;;;;;;;5098926;28;8801;-43
2021/06/15 05:39:22;;;;;;;;;0.00;0.00;;;;;;;;5095598;28;8779;-43
2021/06/15 05:41:47;;;;;;;;;0.00;0.00;;;;;;;;5090396;27;9541;-43
2021/06/15 05:44:13;;;;;;;;;0.00;0.00;;;;;;;;5096159;27;8783;-43
2021/06/15 05:46:38;;;;;;;;;0.00;0.00;;;;;;;;5113516;27;8801;-43
2021/06/15 05:49:03;;;;;;;;;0.00;0.00;;;;;;;;5114508;27;8836;-44
2021/06/15 05:51:28;;;;;;;;;0.00;0.00;;;;;;;;5096045;27;8830;-43
2021/06/15 05:53:54;;;;;;;;;0.00;0.00;;;;;;;;5091525;27;9581;-43
2021/06/15 05:56:19;;;;;;;;;0.00;0.00;;;;;;;;5093016;27;8796;-43
2021/06/15 05:58:44;;;;;;;;;0.00;0.00;;;;;;;;5093252;27;8736;-43
2021/06/15 06:01:09;;;;;;;;;0.00;0.00;;;;;;;;5097162;27;9659;-43
2021/06/15 06:03:37;;;;;;;;;0.00;0.00;;;;;;;;5095437;27;8817;-50
2021/06/15 06:08:46;;;;;;;;;0.00;0.00;;;;;;;;5094820;27;8776;-43
2021/06/15 06:11:12;;;;;;;;;0.00;0.00;;;;;;;;5097421;27;8861;-43
2021/06/15 06:13:37;;;;;;;;;0.00;0.00;;;;;;;;5100611;27;8732;-43
2021/06/15 06:16:08;;;;;;;;;0.00;0.00;;;;;;;;5122349;27;8780;-43
2021/06/15 06:18:33;;;;;;;;;0.25;0.25;;;;;;;;5072990;27;8912;-43
2021/06/15 06:20:58;;;;;;;;;0.00;0.00;;;;;;;;5101261;27;8766;-43
2021/06/15 06:23:23;;;;;;;;;0.00;0.00;;;;;;;;5097594;27;8786;-43
2021/06/15 06:25:49;;;;;;;;;0.00;0.00;;;;;;;;5100569;27;8747;-44
2021/06/15 06:28:14;;;;;;;;;0.00;0.00;;;;;;;;5096774;28;9561;-43
2021/06/15 06:30:39;;;;;;;;;0.00;0.00;;;;;;;;5118088;27;8803;-43
2021/06/15 06:33:04;;;;;;;;;0.00;0.00;;;;;;;;5117905;27;8828;-43
2021/06/15 06:35:30;;;;;;;;;0.00;0.00;;;;;;;;5118373;27;9496;-43
2021/06/15 06:37:55;;;;;;;;;0.00;0.00;;;;;;;;5117806;27;8777;-43
2021/06/15 06:40:20;;;;;;;;;0.00;0.00;;;;;;;;5119171;27;8804;-42
2021/06/15 06:42:45;;;;;;;;;0.00;0.00;;;;;;;;5115738;27;8801;-44
2021/06/15 06:45:11;;;;;;;;;0.00;0.00;;;;;;;;5120414;27;8863;-43
2021/06/15 06:47:36;;;;;;;;;0.00;0.00;;;;;;;;5116085;27;8778;-43
2021/06/15 06:50:02;;;;;;;;;0.00;0.00;;;;;;;;5118372;27;8807;-44
2021/06/15 06:52:28;;;;;;;;;0.00;0.00;;;;;;;;5119548;27;8786;-43
2021/06/15 06:54:53;;;;;;;;;0.00;0.00;;;;;;;;5116977;27;9410;-43
2021/06/15 06:57:18;;;;;;;;;0.00;0.00;;;;;;;;5112813;27;8768;-43
2021/06/15 06:59:43;;;;;;;;;0.00;0.00;;;;;;;;5117541;27;9955;-44
2021/06/15 07:02:09;;;;;;;;;0.00;0.00;;;;;;;;5120929;27;8776;-43
2021/06/15 07:04:34;;;;;;;;;0.00;0.00;;;;;;;;5113922;27;8812;-44
2021/06/15 07:07:00;;;;;;;;;0.00;0.00;;;;;;;;5117542;27;8796;-43
2021/06/15 07:09:25;;;;;;;;;0.00;0.00;;;;;;;;5120494;27;8799;-43
2021/06/15 07:11:50;;;;;;;;;0.00;0.00;;;;;;;;5118148;27;8817;-43
2021/06/15 07:14:16;;;;;;;;;0.00;0.00;;;;;;;;5113164;27;8784;-43
2021/06/15 07:16:41;;;;;;;;;0.00;0.00;;;;;;;;5112105;27;8757;-43
2021/06/15 07:19:06;;;;;;;;;0.00;0.00;;;;;;;;5113963;27;8846;-43
2021/06/15 07:21:31;;;;;;;;;0.00;0.00;;;;;;;;5117085;27;8789;-43
2021/06/15 07:23:56;;;;;;;;;0.00;0.00;;;;;;;;5108923;27;8931;-43
2021/06/15 07:26:22;;;;;;;;;0.00;0.00;;;;;;;;5116729;27;8903;-43
2021/06/15 07:28:47;;;;;;;;;0.00;0.00;;;;;;;;5117355;27;8776;-43
2021/06/15 07:31:12;;;;;;;;;0.00;0.00;;;;;;;;5120748;27;9623;-43
2021/06/15 07:33:37;;;;;;;;;0.00;0.00;;;;;;;;5113772;27;8792;-44
2021/06/15 07:36:03;;;;;;;;;0.00;0.00;;;;;;;;5117136;27;8809;-44
2021/06/15 07:38:28;;;;;;;;;0.00;0.00;;;;;;;;5118537;27;9617;-44
2021/06/15 07:40:54;;;;;;;;;0.00;0.00;;;;;;;;5116043;27;8803;-44
2021/06/15 07:43:20;;;;;;;;;0.00;0.00;;;;;;;;5113420;27;8797;-43
2021/06/15 07:45:46;;;;;;;;;0.00;0.00;;;;;;;;5120274;27;8804;-43
2021/06/15 07:48:11;;;;;;;;;0.00;0.00;;;;;;;;5116627;27;8766;-43
2021/06/15 07:50:36;;;;;;;;;0.00;0.00;;;;;;;;5113697;27;8805;-43
2021/06/15 07:53:01;;;;;;;;;0.00;0.00;;;;;;;;5117001;27;8904;-43
2021/06/15 07:55:27;;;;;;;;;0.00;0.00;;;;;;;;5120705;27;8892;-43
2021/06/15 07:57:52;;;;;;;;;0.00;0.00;;;;;;;;5114524;27;8817;-44
2021/06/15 08:00:18;;;;;;;;;0.00;0.00;;;;;;;;5117687;27;8841;-43
2021/06/15 08:02:46;;;;;;;;;0.00;0.00;;;;;;;;5115441;27;8806;-43
2021/06/15 08:05:12;;;;;;;;;0.00;0.00;;;;;;;;5116329;27;8809;-43
2021/06/15 08:07:38;;;;;;;;;0.00;0.00;;;;;;;;5109922;27;8792;-43
2021/06/15 08:10:04;;;;;;;;;0.00;0.00;;;;;;;;5119925;27;8873;-43
2021/06/15 08:12:29;;;;;;;;;0.00;0.00;;;;;;;;5114955;27;8850;-43
2021/06/15 08:14:54;;;;;;;;;0.00;0.00;;;;;;;;5111189;27;8749;-43
2021/06/15 08:17:19;;;;;;;;;0.00;0.00;;;;;;;;5115737;27;8928;-43
2021/06/15 08:19:44;;;;;;;;;0.00;0.00;;;;;;;;5113830;27;8741;-43
2021/06/15 08:22:10;;;;;;;;;0.00;0.00;;;;;;;;5116902;27;8921;-43
2021/06/15 08:24:35;;;;;;;;;0.00;0.00;;;;;;;;5112668;27;9143;-44
2021/06/15 08:27:00;;;;;;;;;0.00;0.00;;;;;;;;5118514;27;8788;-43
2021/06/15 08:29:25;;;;;;;;;0.00;0.00;;;;;;;;5115325;27;8876;-44
2021/06/15 08:31:51;;;;;;;;;0.00;0.00;;;;;;;;5116485;27;8781;-43
2021/06/15 08:34:17;;;;;;;;;0.00;0.00;;;;;;;;5120020;27;8844;-43
2021/06/15 08:36:42;;;;;;;;;0.00;0.00;;;;;;;;5116336;27;8879;-43
2021/06/15 08:39:08;;;;;;;;;0.00;0.00;;;;;;;;5112850;27;8890;-44
2021/06/15 08:41:34;;;;;;;;;0.00;0.00;;;;;;;;5111352;27;8758;-44
2021/06/15 08:44:01;;;;;;;;;0.00;0.00;;;;;;;;5118096;27;8809;-43
2021/06/15 08:46:26;;;;;;;;;0.00;0.00;;;;;;;;5113870;27;8793;-43
2021/06/15 08:48:52;;;;;;;;;0.00;0.00;;;;;;;;5118164;27;8869;-43
2021/06/15 08:51:17;;;;;;;;;0.00;0.00;;;;;;;;5116510;27;8873;-43
2021/06/15 08:53:42;;;;;;;;;0.33;0.00;;;;;;;;5115628;27;8888;-43
2021/06/15 08:56:23;;;;;;;;;0.00;0.00;;;;;;;;5115391;27;8817;-43
2021/06/15 08:58:59;;;;;;;;;0.00;0.00;;;;;;;;5118537;27;8918;-43
2021/06/15 09:01:25;;;;;;;;;0.00;0.00;;;;;;;;5111512;27;8832;-43
2021/06/15 09:03:52;;;;;;;;;0.00;0.00;;;;;;;;5096816;27;8848;-43
2021/06/15 09:06:17;;;;;;;;;0.00;0.00;;;;;;;;5113606;27;8805;-43
2021/06/15 09:08:49;;;;;;;;;0.00;0.00;;;;;;;;5117416;27;8781;-44
2021/06/15 09:11:14;;;;;;;;;0.00;0.00;;;;;;;;5111413;27;8815;-44
2021/06/15 09:13:40;;;;;;;;;0.00;0.00;;;;;;;;5120397;27;8753;-44
2021/06/15 09:16:21;;;;;;;;;0.00;0.00;;;;;;;;5115584;27;8784;-43
2021/06/15 09:18:47;;;;;;;;;0.00;0.00;;;;;;;;5100594;28;12144;-43
2021/06/15 09:21:23;;;;;;;;;0.00;0.00;;;;;;;;5091625;27;8817;-43
2021/06/15 09:23:48;;;;;;;;;0.00;0.00;;;;;;;;5099980;28;9323;-44
2021/06/15 09:26:13;;;;;;;;;0.00;0.00;;;;;;;;5091044;27;8766;-43
2021/06/15 09:28:49;;;;;;;;;0.00;0.00;;;;;;;;5098742;27;8765;-43
2021/06/15 09:31:14;;;;;;;;;0.00;0.00;;;;;;;;5094892;28;8883;-44
2021/06/15 09:33:44;;;;;;;;;0.00;0.00;;;;;;;;5098742;28;8770;-43
2021/06/15 09:36:15;;;;;;;;;0.00;0.00;;;;;;;;5093264;27;8833;-44
2021/06/15 09:38:59;;;;;;;;;0.00;0.00;;;;;;;;5093353;28;8766;-43
2021/06/15 09:41:35;;;;;;;;;0.00;0.00;;;;;;;;5091522;27;8770;-44
2021/06/15 09:44:21;;;;;;;;;0.00;0.00;;;;;;;;5098410;27;8880;-44
2021/06/15 09:46:56;;;;;;;;;0.00;0.00;;;;;;;;5092872;28;8790;-43
2021/06/15 09:49:27;;;;;;;;;0.00;0.00;;;;;;;;5093153;28;8891;-43
2021/06/15 09:52:11;;;;;;;;;0.00;0.00;;;;;;;;5098816;27;8815;-43
2021/06/15 09:54:38;;;;;;;;;0.00;0.00;;;;;;;;5091571;28;8771;-43
2021/06/15 09:57:03;;;;;;;;;0.00;0.00;;;;;;;;5109464;27;8779;-44
2021/06/15 09:59:28;;;;;;;;;0.00;0.00;;;;;;;;5102529;27;8816;-43
2021/06/15 10:01:56;;;;;;;;;0.00;0.00;;;;;;;;5095460;28;8920;-44
2021/06/15 10:04:23;;;;;;;;;0.00;0.00;;;;;;;;5091480;27;8844;-43
2021/06/15 10:06:52;;;;;;;;;0.00;0.00;;;;;;;;5099405;28;8790;-43
2021/06/15 10:09:33;;;;;;;;;0.00;0.00;;;;;;;;5094048;27;8864;-44
2021/06/15 10:12:00;;;;;;;;;0.00;0.00;;;;;;;;5115096;27;8772;-43
2021/06/15 10:14:26;;;;;;;;;0.00;0.00;;;;;;;;5106823;27;8802;-43
2021/06/15 10:16:52;;;;;;;;;0.00;0.00;;;;;;;;5100823;27;9558;-44
2021/06/15 10:19:17;;;;;;;;;0.00;0.00;;;;;;;;5097569;27;8880;-44
2021/06/15 10:21:42;;;;;;;;;0.00;0.00;;;;;;;;5101422;27;8802;-43
2021/06/15 10:24:08;;;;;;;;;0.00;0.00;;;;;;;;5095071;27;8770;-43
2021/06/15 10:26:34;;;;;;;;;0.00;0.00;;;;;;;;5096000;27;8920;-44
2021/06/15 10:29:00;;;;;;;;;0.00;0.00;;;;;;;;5097010;27;11434;-43
2021/06/15 10:31:26;;;;;;;;;0.00;0.00;;;;;;;;5100388;27;8807;-43
2021/06/15 10:33:52;;;;;;;;;0.00;0.00;;;;;;;;5099856;27;8767;-43
2021/06/15 10:36:34;;;;;;;;;0.00;0.00;;;;;;;;5104791;27;8762;-43
2021/06/15 10:39:00;;;;;;;;;0.00;0.00;;;;;;;;5099019;27;8797;-43
2021/06/15 10:41:25;;;;;;;;;0.00;0.00;;;;;;;;5107036;27;8768;-43
2021/06/15 10:43:54;;;;;;;;;0.00;0.00;;;;;;;;5113397;27;8763;-43
2021/06/15 10:46:19;;;;;;;;;0.00;0.00;;;;;;;;5093844;27;8777;-43
2021/06/15 10:48:46;;;;;;;;;0.00;0.00;;;;;;;;5095276;27;8800;-43
2021/06/15 10:51:22;;;;;;;;;0.00;0.00;;;;;;;;5096834;27;8794;-43
2021/06/15 10:53:48;;;;;;;;;0.00;0.00;;;;;;;;5098404;27;9010;-43
2021/06/15 10:56:15;;;;;;;;;0.00;0.00;;;;;;;;5094520;28;8946;-44
2021/06/15 10:58:43;;;;;;;;;0.00;0.00;;;;;;;;5097851;28;11376;-44
2021/06/15 11:01:13;;;;;;;;;0.00;0.00;;;;;;;;5096902;27;8807;-44
2021/06/15 11:03:49;;;;;;;;;0.00;0.00;;;;;;;;5101531;27;8821;-44
2021/06/15 11:06:15;;;;;;;;;0.00;0.00;;;;;;;;5093275;27;8794;-44
2021/06/15 11:08:40;;;;;;;;;0.00;0.00;;;;;;;;5103498;27;8764;-43
2021/06/15 11:11:17;;;;;;;;;0.00;0.00;;;;;;;;5114759;27;8814;-43
2021/06/15 11:13:43;;;;;;;;;0.00;0.00;;;;;;;;5123761;27;8749;-43
2021/06/15 11:16:31;;;;;;;;;0.00;0.00;;;;;;;;5115201;27;8808;-44
2021/06/15 11:19:12;;;;;;;;;0.00;0.00;;;;;;;;5102595;27;8863;-43
2021/06/15 11:21:43;;;;;;;;;0.00;0.00;;;;;;;;5098937;27;8862;-44
2021/06/15 11:24:21;;;;;;;;;0.00;0.00;;;;;;;;5096852;27;8780;-43
2021/06/15 11:26:47;;;;;;;;;0.00;0.00;;;;;;;;5105807;27;9536;-44
2021/06/15 11:29:29;;;;;;;;;0.00;0.00;;;;;;;;5114767;27;9596;-43
2021/06/15 11:32:14;;;;;;;;;0.00;0.00;;;;;;;;5098417;27;8904;-43
2021/06/15 11:34:41;;;;;;;;;0.00;0.00;;;;;;;;5098774;27;8801;-43
2021/06/15 11:37:18;;;;;;;;;0.00;0.00;;;;;;;;5096129;27;8775;-44
2021/06/15 11:39:44;;;;;;;;;0.00;0.00;;;;;;;;5115533;27;9529;-43
2021/06/15 11:42:10;;;;;;;;;0.00;0.00;;;;;;;;5118072;27;8758;-43
2021/06/15 11:44:59;;;;;;;;;0.00;0.00;;;;;;;;5114405;27;8767;-44
2021/06/15 11:47:30;;;;;;;;;0.00;0.00;;;;;;;;5118991;27;8750;-43
2021/06/15 11:50:05;;;;;;;;;0.00;0.00;;;;;;;;5114115;27;9495;-43
2021/06/15 11:52:30;;;;;;;;;0.00;0.00;;;;;;;;5120036;27;8794;-43
2021/06/15 11:54:55;;;;;;;;;0.00;0.00;;;;;;;;5117955;27;8945;-44
2021/06/15 11:57:20;;;;;;;;;0.00;0.00;;;;;;;;5117256;27;8840;-44
2021/06/15 11:59:46;;;;;;;;;0.00;0.00;;;;;;;;5111902;27;8817;-43
2021/06/15 12:02:11;;;;;;;;;0.00;0.00;;;;;;;;5119346;27;8789;-43
2021/06/15 12:04:36;;;;;;;;;0.00;0.00;;;;;;;;5115829;27;8785;-43
2021/06/15 12:07:14;;;;;;;;;0.00;0.00;;;;;;;;5121491;27;8785;-43
2021/06/15 12:09:58;;;;;;;;;0.00;0.00;;;;;;;;5114713;27;8766;-43
2021/06/15 12:12:24;;;;;;;;;0.00;0.00;;;;;;;;5112293;27;8824;-43
2021/06/15 12:14:49;;;;;;;;;0.00;0.00;;;;;;;;5115221;27;8809;-43
2021/06/15 12:17:14;;;;;;;;;0.00;0.00;;;;;;;;5115940;27;8805;-43
2021/06/15 12:19:39;;;;;;;;;0.00;0.00;;;;;;;;5114313;27;8738;-43
2021/06/15 12:22:13;;;;;;;;;0.00;0.00;;;;;;;;5112495;27;8802;-43
2021/06/15 12:24:45;;;;;;;;;0.00;0.00;;;;;;;;5109563;27;8797;-43
2021/06/15 12:27:21;;;;;;;;;0.00;0.00;;;;;;;;5099603;27;8782;-49
2021/06/15 12:29:46;;;;;;;;;0.00;0.00;;;;;;;;5110734;27;8892;-44
2021/06/15 12:32:12;;;;;;;;;0.00;0.00;;;;;;;;5110829;27;8943;-44
2021/06/15 12:34:37;;;;;;;;;0.00;0.00;;;;;;;;5115275;27;8800;-43
2021/06/15 12:37:05;;;;;;;;;0.00;0.00;;;;;;;;5116798;27;8799;-44
2021/06/15 12:39:33;;;;;;;;;0.00;0.00;;;;;;;;5111857;27;8769;-44
2021/06/15 12:42:06;;;;;;;;;0.00;0.00;;;;;;;;5109995;27;8831;-44
2021/06/15 12:44:36;;;;;;;;;0.00;0.00;;;;;;;;5112996;27;8919;-44
2021/06/15 12:47:03;;;;;;;;;0.00;0.00;;;;;;;;5109996;27;8772;-44
2021/06/15 12:49:28;;;;;;;;;0.00;0.00;;;;;;;;5113913;27;8951;-44
2021/06/15 12:51:55;;;;;;;;;0.00;0.00;;;;;;;;5114976;27;8999;-45
2021/06/15 12:54:20;;;;;;;;;0.00;0.00;;;;;;;;5112047;27;8797;-45
2021/06/15 12:56:56;;;;;;;;;0.00;0.00;;;;;;;;5109408;27;8804;-44
2021/06/15 12:59:21;;;;;;;;;0.00;0.00;;;;;;;;5110557;27;8858;-44
2021/06/15 13:01:46;;;;;;;;;0.00;0.00;;;;;;;;5094986;27;8790;-44
2021/06/15 13:04:19;;;;;;;;;0.00;0.00;;;;;;;;5120115;27;8848;-44
2021/06/15 13:06:45;;;;;;;;;0.00;0.00;;;;;;;;5107075;27;8803;-44
2021/06/15 13:09:27;;;;;;;;;0.00;0.00;;;;;;;;5115600;27;8778;-44
2021/06/15 13:12:01;;;;;;;;;0.00;0.00;;;;;;;;5111485;27;8817;-43
2021/06/15 13:14:35;;;;;;;;;0.00;0.00;;;;;;;;5113736;27;8782;-43
2021/06/15 13:17:11;;;;;;;;;0.00;0.00;;;;;;;;5112779;27;9704;-44
2021/06/15 13:19:59;;;;;;;;;0.75;0.75;;;;;;;;5112323;27;8827;-44
2021/06/15 13:22:28;;;;;;;;;0.00;0.00;;;;;;;;5111566;27;8796;-44
2021/06/15 13:24:53;;;;;;;;;0.00;0.00;;;;;;;;5114092;27;8813;-44
2021/06/15 13:27:19;;;;;;;;;0.00;0.00;;;;;;;;5112142;27;8809;-44
2021/06/15 13:29:45;;;;;;;;;0.00;0.00;;;;;;;;5109848;27;8782;-45
2021/06/15 13:32:14;;;;;;;;;0.00;0.00;;;;;;;;5114618;27;8804;-43
2021/06/15 13:34:55;;;;;;;;;0.00;0.00;;;;;;;;5112278;27;8911;-43
2021/06/15 13:37:24;;;;;;;;;0.00;0.00;;;;;;;;5114053;27;8789;-44
2021/06/15 13:39:50;;;;;;;;;0.00;0.00;;;;;;;;5113560;27;8794;-44
2021/06/15 13:42:21;;;;;;;;;0.00;0.00;;;;;;;;5110941;27;8816;-44
2021/06/15 13:44:59;;;;;;;;;0.00;0.00;;;;;;;;5113612;27;9172;-45
2021/06/15 13:47:24;;;;;;;;;0.00;0.00;;;;;;;;5085551;27;8849;-43
2021/06/15 13:49:50;;;;;;;;;0.00;0.00;;;;;;;;5087237;27;8762;-46
2021/06/15 13:52:15;;;;;;;;;0.00;0.00;;;;;;;;5095115;27;8859;-44
2021/06/15 13:54:40;;;;;;;;;0.00;0.00;;;;;;;;5096090;27;8840;-44
2021/06/15 13:57:05;;;;;;;;;0.00;0.00;;;;;;;;5092211;27;8787;-44
2021/06/15 13:59:31;;;;;;;;;0.00;0.00;;;;;;;;5094015;27;8798;-44
2021/06/15 14:01:56;;;;;;;;;0.00;0.00;;;;;;;;5086856;27;8780;-44
2021/06/15 14:04:21;;;;;;;;;0.00;0.00;;;;;;;;5095973;27;9889;-44
2021/06/15 14:06:47;;;;;;;;;0.00;0.00;;;;;;;;5089149;28;8911;-44
2021/06/15 14:09:12;;;;;;;;;0.00;0.00;;;;;;;;5096965;27;8906;-44
2021/06/15 14:11:39;;;;;;;;;0.00;0.00;;;;;;;;5092927;27;9181;-44
2021/06/15 14:14:04;;;;;;;;;0.00;0.00;;;;;;;;5096052;28;8886;-44
2021/06/15 14:16:29;;;;;;;;;0.00;0.00;;;;;;;;5092454;27;9008;-44
2021/06/15 14:18:54;;;;;;;;;0.00;0.00;;;;;;;;5097766;27;9610;-44
2021/06/15 14:21:19;;;;;;;;;0.00;0.00;;;;;;;;5091084;27;8795;-44
2021/06/15 14:23:45;;;;;;;;;0.00;0.00;;;;;;;;5097262;28;8805;-44
2021/06/15 14:26:10;;;;;;;;;0.00;0.00;;;;;;;;5090360;27;8790;-44
2021/06/15 14:28:35;;;;;;;;;0.00;0.00;;;;;;;;5095802;27;8787;-44
2021/06/15 14:31:00;;;;;;;;;0.00;0.00;;;;;;;;5098727;27;8855;-45
2021/06/15 14:33:26;;;;;;;;;0.00;0.00;;;;;;;;5098678;27;8828;-44
2021/06/15 14:35:51;;;;;;;;;0.00;0.00;;;;;;;;5091812;27;8784;-44
2021/06/15 14:38:16;;;;;;;;;0.00;0.00;;;;;;;;5097903;27;8832;-44
2021/06/15 14:40:41;;;;;;;;;0.00;0.00;;;;;;;;5092320;27;8752;-44
2021/06/15 14:43:07;;;;;;;;;0.00;0.00;;;;;;;;5097739;27;9694;-44
2021/06/15 14:45:32;;;;;;;;;0.00;0.00;;;;;;;;5089828;27;8788;-44
2021/06/15 14:47:57;;;;;;;;;0.00;0.00;;;;;;;;5093700;27;8792;-44
2021/06/15 14:50:22;;;;;;;;;0.00;0.00;;;;;;;;5090614;27;8826;-44
2021/06/15 14:52:48;;;;;;;;;0.00;0.00;;;;;;;;5093287;27;8760;-44
2021/06/15 14:55:13;;;;;;;;;0.00;0.00;;;;;;;;5093623;27;8792;-44
2021/06/15 14:57:39;;;;;;;;;0.00;0.00;;;;;;;;5092808;27;8778;-44
2021/06/15 15:00:05;;;;;;;;;0.00;0.00;;;;;;;;5089475;27;8888;-44
2021/06/15 15:02:30;;;;;;;;;0.00;0.00;;;;;;;;5097428;27;8773;-44